Time;durP1;ratioP1;P1;durP2;ratioP2;P2;SDS_P1;SDS_P2;PMS_P1;PMS_P2;Temp;Humidity;BMP_temperature;BMP_pressure;BME280_temperature;BME280_humidity;BME280_pressure;Samples;Min_cycle;Max_cycle;Signal;HPM_P1;HPM_P2
2021/04/21 00:01:40;;;;;;;10.02;8.30;;;12.00;79.40;;;;;;5002071;28;20036;-38
2021/04/21 00:04:07;;;;;;;11.93;9.63;;;11.90;79.70;;;;;;5000297;28;20054;-38
2021/04/21 00:06:37;;;;;;;16.70;11.20;;;11.80;81.30;;;;;;5002443;28;20599;-36
2021/04/21 00:09:11;;;;;;;11.82;9.27;;;11.60;81.40;;;;;;5001671;28;20038;-43
2021/04/21 00:11:38;;;;;;;14.93;10.85;;;11.40;81.40;;;;;;5001366;28;20125;-39
2021/04/21 00:14:03;;;;;;;18.00;11.35;;;11.30;82.10;;;;;;5003228;28;20029;-39
2021/04/21 00:16:31;;;;;;;14.57;11.30;;;11.20;82.60;;;;;;4998922;28;20030;-37
2021/04/21 00:18:57;;;;;;;16.70;11.57;;;11.10;83.20;;;;;;5005783;28;20034;-38
2021/04/21 00:21:24;;;;;;;17.23;11.68;;;11.00;83.60;;;;;;4996003;28;20032;-37
2021/04/21 00:23:51;;;;;;;17.30;11.80;;;11.00;83.90;;;;;;5005753;28;20029;-38
2021/04/21 00:26:20;;;;;;;16.38;12.38;;;10.90;84.30;;;;;;4996586;28;20030;-38
2021/04/21 00:28:46;;;;;;;21.90;12.32;;;10.90;84.70;;;;;;5006283;28;20156;-38
2021/04/21 00:31:14;;;;;;;19.15;12.40;;;10.80;85.10;;;;;;4995692;28;20029;-38
2021/04/21 00:33:42;;;;;;;15.20;11.73;;;10.80;85.20;;;;;;5006687;28;20037;-38
2021/04/21 00:36:14;;;;;;;16.35;11.82;;;10.70;85.50;;;;;;4994183;28;20041;-39
2021/04/21 00:38:41;;;;;;;18.85;12.63;;;10.70;85.80;;;;;;5007529;28;20111;-38
2021/04/21 00:41:30;;;;;;;15.48;12.63;;;10.60;86.90;;;;;;4994207;28;20061;-39
2021/04/21 00:44:22;;;;;;;19.58;13.13;;;10.50;87.40;;;;;;5006972;28;20040;-38
2021/04/21 00:46:58;;;;;;;17.90;12.77;;;10.40;88.20;;;;;;4980080;28;20133;-39
2021/04/21 00:49:38;;;;;;;17.42;11.80;;;10.30;88.40;;;;;;4987286;28;20037;-38
2021/04/21 00:52:17;;;;;;;16.63;12.35;;;10.20;88.40;;;;;;4998537;28;20034;-40
2021/04/21 00:54:51;;;;;;;19.02;13.68;;;10.20;88.60;;;;;;4987836;28;20026;-37
2021/04/21 00:57:28;;;;;;;18.27;13.45;;;10.20;89.20;;;;;;4998648;28;20030;-39
2021/04/21 01:00:05;;;;;;;18.70;13.57;;;10.20;89.30;;;;;;5005218;28;20096;-39
2021/04/21 01:02:40;;;;;;;16.63;13.00;;;10.10;90.00;;;;;;4994394;28;20046;-40
2021/04/21 01:05:18;;;;;;;18.88;13.27;;;10.10;89.80;;;;;;5005353;28;20091;-40
2021/04/21 01:07:47;;;;;;;16.25;12.70;;;10.10;90.00;;;;;;4995477;28;20493;-39
2021/04/21 01:10:14;;;;;;;19.33;14.18;;;10.10;90.10;;;;;;5004481;28;20516;-39
2021/04/21 01:12:42;;;;;;;19.88;14.88;;;10.10;90.10;;;;;;4995589;28;20508;-37
2021/04/21 01:15:12;;;;;;;21.13;15.02;;;10.00;90.30;;;;;;5006447;28;20125;-38
2021/04/21 01:17:40;;;;;;;26.33;16.92;;;10.00;90.50;;;;;;4998376;28;20022;-39
2021/04/21 01:20:21;;;;;;;23.13;16.70;;;10.00;90.60;;;;;;4986617;28;20034;-39
2021/04/21 01:22:47;;;;;;;23.13;16.98;;;9.90;90.90;;;;;;4997711;28;20540;-39
2021/04/21 01:25:27;;;;;;;23.20;17.55;;;9.90;91.10;;;;;;4986792;28;20030;-39
2021/04/21 01:28:03;;;;;;;27.17;17.55;;;9.90;91.20;;;;;;4998214;28;20096;-38
2021/04/21 01:30:35;;;;;;;25.90;17.98;;;9.80;91.30;;;;;;4986668;28;20100;-39
2021/04/21 01:33:05;;;;;;;27.98;18.90;;;9.80;91.50;;;;;;4998441;28;20034;-38
2021/04/21 01:35:44;;;;;;;29.10;19.33;;;9.70;91.70;;;;;;4985983;28;20156;-40
2021/04/21 01:38:10;;;;;;;29.45;20.25;;;9.70;91.90;;;;;;4997931;28;20021;-39
2021/04/21 01:40:42;;;;;;;27.20;19.48;;;9.70;92.10;;;;;;4986448;28;20031;-39
2021/04/21 01:43:15;;;;;;;28.48;20.90;;;9.60;92.30;;;;;;4997992;28;20555;-39
2021/04/21 01:45:43;;;;;;;29.23;20.27;;;9.60;92.40;;;;;;4986067;28;20036;-39
2021/04/21 01:48:13;;;;;;;28.45;20.92;;;9.50;92.60;;;;;;4996971;28;20373;-38
2021/04/21 01:50:39;;;;;;;35.15;22.25;;;9.50;92.90;;;;;;4985853;28;20506;-38
2021/04/21 01:53:29;;;;;;;28.27;20.65;;;9.40;93.00;;;;;;4995448;28;20141;-38
2021/04/21 01:56:02;;;;;;;31.45;23.38;;;9.40;93.20;;;;;;4986091;28;20042;-37
2021/04/21 01:58:49;;;;;;;32.83;22.73;;;9.30;93.30;;;;;;4987211;28;20034;-38
2021/04/21 02:01:17;;;;;;;30.35;22.80;;;9.20;93.50;;;;;;4985931;28;20034;-39
2021/04/21 02:03:49;;;;;;;33.72;24.00;;;9.20;93.70;;;;;;4992599;28;20061;-39
2021/04/21 02:06:36;;;;;;;34.03;24.08;;;9.10;93.90;;;;;;4985914;28;20517;-37
2021/04/21 02:09:10;;;;;;;33.38;23.60;;;9.10;94.10;;;;;;4997682;28;20373;-38
2021/04/21 02:11:39;;;;;;;31.35;23.33;;;9.10;94.20;;;;;;4985284;28;20161;-39
2021/04/21 02:14:33;;;;;;;37.35;25.65;;;9.10;94.50;;;;;;4997421;28;20080;-37
2021/04/21 02:17:28;;;;;;;38.03;25.70;;;9.00;94.60;;;;;;4985741;28;20735;-37
2021/04/21 02:20:14;;;;;;;35.33;25.13;;;8.90;94.80;;;;;;4996051;28;20014;-39
2021/04/21 02:23:02;;;;;;;35.97;25.63;;;8.90;94.90;;;;;;4987169;28;20221;-39
2021/04/21 02:25:57;;;;;;;35.17;25.83;;;8.90;95.00;;;;;;4996363;28;20026;-38
2021/04/21 02:29:04;;;;;;;35.08;25.00;;;8.90;95.20;;;;;;4987371;28;20568;-36
2021/04/21 02:31:42;;;;;;;35.58;23.95;;;8.90;95.30;;;;;;4952422;28;20041;-36
2021/04/21 02:34:33;;;;;;;36.15;24.70;;;8.90;95.30;;;;;;4992167;28;20030;-37
2021/04/21 02:37:24;;;;;;;36.15;24.08;;;9.00;95.30;;;;;;4987237;28;20030;-37
2021/04/21 02:39:58;;;;;;;38.05;25.75;;;9.00;95.20;;;;;;4996135;28;20149;-38
2021/04/21 02:43:00;;;;;;;34.45;24.70;;;9.00;95.10;;;;;;4985329;28;20130;-37
2021/04/21 02:45:43;;;;;;;35.97;24.35;;;9.10;95.10;;;;;;4992982;28;20030;-37
2021/04/21 02:48:22;;;;;;;37.40;25.00;;;9.10;95.10;;;;;;4984901;28;20033;-38
2021/04/21 02:51:06;;;;;;;33.20;23.45;;;9.10;95.10;;;;;;4992536;28;20029;-38
2021/04/21 02:53:55;;;;;;;34.03;24.48;;;9.10;95.10;;;;;;5004155;28;20109;-38
2021/04/21 02:56:36;;;;;;;30.33;23.55;;;9.10;95.10;;;;;;4996491;28;20030;-38
2021/04/21 02:59:24;;;;;;;37.47;25.35;;;9.10;95.00;;;;;;4996977;28;20213;-38
2021/04/21 03:02:08;;;;;;;35.28;25.15;;;9.10;95.00;;;;;;4994207;28;20029;-39
2021/04/21 03:05:03;;;;;;;38.97;25.35;;;9.10;95.00;;;;;;5002032;28;20049;-37
2021/04/21 03:08:03;;;;;;;34.75;26.23;;;9.10;95.00;;;;;;4998504;28;20392;-39
2021/04/21 03:10:35;;;;;;;35.60;26.33;;;9.10;95.10;;;;;;4996179;28;20061;-38
2021/04/21 03:13:16;;;;;;;36.17;26.17;;;9.10;95.40;;;;;;5001528;28;20018;-39
2021/04/21 03:15:48;;;;;;;39.40;28.40;;;9.10;95.20;;;;;;4995373;28;20033;-38
2021/04/21 03:18:19;;;;;;;33.13;26.60;;;9.10;95.30;;;;;;5002197;28;20045;-37
2021/04/21 03:20:51;;;;;;;39.00;27.63;;;9.10;95.40;;;;;;4996804;28;20030;-37
2021/04/21 03:23:18;;;;;;;41.10;29.48;;;9.10;95.50;;;;;;5000928;28;20041;-39
2021/04/21 03:25:48;;;;;;;39.90;29.40;;;9.10;95.60;;;;;;4997986;28;20026;-39
2021/04/21 03:28:17;;;;;;;44.80;30.15;;;9.10;95.70;;;;;;4999016;28;20080;-39
2021/04/21 03:30:44;;;;;;;44.88;30.33;;;9.00;95.70;;;;;;4999586;28;20026;-38
2021/04/21 03:33:16;;;;;;;42.67;29.52;;;9.10;95.80;;;;;;4996586;28;20414;-38
2021/04/21 03:35:50;;;;;;;38.90;30.23;;;9.00;95.80;;;;;;5001195;28;20108;-39
2021/04/21 03:38:17;;;;;;;43.80;30.38;;;9.00;95.80;;;;;;5000119;28;20054;-38
2021/04/21 03:40:43;;;;;;;42.58;30.80;;;9.00;95.90;;;;;;5006134;28;20030;-36
2021/04/21 03:43:09;;;;;;;44.00;31.55;;;9.00;95.90;;;;;;4997149;28;20049;-38
2021/04/21 03:45:36;;;;;;;44.85;33.25;;;8.90;96.00;;;;;;5006563;28;20046;-38
2021/04/21 03:48:03;;;;;;;43.28;32.38;;;8.90;96.10;;;;;;4996934;28;20026;-38
2021/04/21 03:50:29;;;;;;;44.30;31.67;;;8.90;96.20;;;;;;5006623;28;20037;-39
2021/04/21 03:53:04;;;;;;;38.55;29.17;;;8.90;96.30;;;;;;4996521;28;20103;-39
2021/04/21 03:55:34;;;;;;;41.22;29.33;;;8.80;96.20;;;;;;5007890;28;20030;-39
2021/04/21 03:58:11;;;;;;;43.28;33.13;;;8.80;96.20;;;;;;4995492;28;20026;-38
2021/04/21 04:00:38;;;;;;;45.85;33.08;;;8.80;96.30;;;;;;5007726;28;20037;-38
2021/04/21 04:03:10;;;;;;;46.28;31.73;;;8.80;96.30;;;;;;4995350;28;20046;-39
2021/04/21 04:05:46;;;;;;;45.15;33.75;;;8.70;96.40;;;;;;5007305;28;20033;-39
2021/04/21 04:08:14;;;;;;;44.38;32.15;;;8.70;96.40;;;;;;4995065;28;20034;-38
2021/04/21 04:10:47;;;;;;;43.45;33.10;;;8.70;96.50;;;;;;5007879;28;20109;-38
2021/04/21 04:13:13;;;;;;;41.55;31.60;;;8.60;96.60;;;;;;4994620;28;20105;-39
2021/04/21 04:15:40;;;;;;;42.78;32.90;;;8.60;96.60;;;;;;5007584;28;20709;-40
2021/04/21 04:18:07;;;;;;;43.63;34.53;;;8.50;96.60;;;;;;4995936;28;20076;-38
2021/04/21 04:20:34;;;;;;;44.78;33.33;;;8.50;96.80;;;;;;5006243;28;20038;-36
2021/04/21 04:23:06;;;;;;;50.38;35.42;;;8.40;96.80;;;;;;4997783;28;20137;-38
2021/04/21 04:25:36;;;;;;;45.90;33.67;;;8.40;96.90;;;;;;5004708;28;20026;-38
2021/04/21 04:28:03;;;;;;;45.40;32.67;;;8.40;97.00;;;;;;4999298;28;20180;-39
2021/04/21 04:30:31;;;;;;;45.70;34.13;;;8.30;97.10;;;;;;5003039;28;20113;-39
2021/04/21 04:33:04;;;;;;;49.90;37.20;;;8.30;97.20;;;;;;5000986;28;20053;-37
2021/04/21 04:35:29;;;;;;;50.00;38.30;;;8.20;97.40;;;;;;5001793;28;20156;-39
2021/04/21 04:38:02;;;;;;;57.53;41.10;;;8.20;97.70;;;;;;5002704;28;20470;-39
2021/04/21 04:40:29;;;;;;;49.72;38.08;;;8.10;97.70;;;;;;5000195;28;20018;-38
2021/04/21 04:42:56;;;;;;;50.38;38.05;;;8.10;97.90;;;;;;5003926;28;20038;-37
2021/04/21 04:45:27;;;;;;;55.03;39.50;;;8.10;97.90;;;;;;4998304;28;20026;-42
2021/04/21 04:47:57;;;;;;;60.08;43.47;;;8.00;98.00;;;;;;5004844;28;20033;-38
2021/04/21 04:50:23;;;;;;;62.13;44.20;;;8.00;98.10;;;;;;4996545;28;20022;-38
2021/04/21 04:52:51;;;;;;;55.75;44.03;;;8.00;98.20;;;;;;5005446;28;20042;-38
2021/04/21 04:55:19;;;;;;;59.55;44.22;;;8.00;98.40;;;;;;4995981;28;20053;-38
2021/04/21 04:57:48;;;;;;;66.85;48.15;;;7.90;98.40;;;;;;5004966;28;20034;-38
2021/04/21 05:00:19;;;;;;;60.42;46.17;;;7.90;98.50;;;;;;4995937;28;20029;-38
2021/04/21 05:03:10;;;;;;;62.30;46.95;;;7.90;98.60;;;;;;5005989;28;20524;-37
2021/04/21 05:05:36;;;;;;;63.28;48.63;;;7.90;98.60;;;;;;4998581;28;20437;-38
2021/04/21 05:08:05;;;;;;;64.63;49.33;;;7.80;98.70;;;;;;4987554;28;20089;-39
2021/04/21 05:10:40;;;;;;;59.95;46.70;;;7.80;98.70;;;;;;4998094;28;20386;-38
2021/04/21 05:13:08;;;;;;;65.03;49.47;;;7.80;98.80;;;;;;4987591;28;20042;-38
2021/04/21 05:15:40;;;;;;;63.85;45.75;;;7.80;98.90;;;;;;4998152;28;20785;-39
2021/04/21 05:18:05;;;;;;;57.83;44.35;;;7.80;98.80;;;;;;4987209;28;20074;-38
2021/04/21 05:21:04;;;;;;;57.67;44.30;;;7.80;98.80;;;;;;4999156;28;20030;-40
2021/04/21 05:24:10;;;;;;;56.38;43.05;;;7.80;98.80;;;;;;4986443;28;20038;-38
2021/04/21 05:27:00;;;;;;;53.10;41.70;;;7.80;98.70;;;;;;4995840;28;20069;-38
2021/04/21 05:29:40;;;;;;;59.92;44.35;;;7.80;98.70;;;;;;5003025;28;20426;-39
2021/04/21 05:32:23;;;;;;;58.08;43.00;;;7.80;98.60;;;;;;4998771;28;20053;-39
2021/04/21 05:35:26;;;;;;;56.58;41.80;;;7.90;98.60;;;;;;5001779;28;20031;-39
2021/04/21 05:38:14;;;;;;;53.45;42.83;;;7.90;98.50;;;;;;5002876;28;20496;-38
2021/04/21 05:41:27;;;;;;;58.10;43.58;;;8.00;98.50;;;;;;4996252;28;20026;-39
2021/04/21 05:45:00;;;;;;;50.15;40.83;;;8.00;98.40;;;;;;4869179;29;20041;-38
2021/04/21 05:47:49;;;;;;;50.72;40.35;;;8.10;98.30;;;;;;4915459;29;20024;-38
2021/04/21 05:51:03;;;;;;;57.17;44.15;;;8.10;98.10;;;;;;4923755;29;20259;-38
2021/04/21 05:54:02;;;;;;;56.65;42.40;;;8.20;98.10;;;;;;4911661;28;20051;-39
2021/04/21 05:56:34;;;;;;;53.72;40.60;;;8.30;98.00;;;;;;4996649;28;20034;-38
2021/04/21 05:59:30;;;;;;;54.08;41.92;;;8.30;97.90;;;;;;4995069;28;20038;-39
2021/04/21 06:01:57;;;;;;;51.30;41.10;;;8.30;97.80;;;;;;4991787;28;20033;-39
2021/04/21 06:04:24;;;;;;;50.55;39.10;;;8.30;97.70;;;;;;5004173;28;20485;-40
2021/04/21 06:07:03;;;;;;;51.13;40.47;;;8.30;97.60;;;;;;5001087;28;20442;-39
2021/04/21 06:09:31;;;;;;;44.17;37.05;;;8.30;97.50;;;;;;5004287;28;20037;-38
2021/04/21 06:12:15;;;;;;;47.78;37.38;;;8.40;97.40;;;;;;4998790;28;20120;-38
2021/04/21 06:14:42;;;;;;;47.30;35.30;;;8.40;97.40;;;;;;4985528;28;20029;-37
2021/04/21 06:17:08;;;;;;;44.25;34.50;;;8.40;97.60;;;;;;4996166;28;20102;-38
2021/04/21 06:19:33;;;;;;;45.60;33.20;;;8.40;97.10;;;;;;5001890;28;20030;-39
2021/04/21 06:21:59;;;;;;;47.10;34.95;;;8.50;96.90;;;;;;4998165;28;20462;-38
2021/04/21 06:24:29;;;;;;;41.47;32.67;;;8.50;96.80;;;;;;5004261;28;20045;-35
2021/04/21 06:27:08;;;;;;;39.60;32.03;;;8.50;96.70;;;;;;5000171;28;20108;-38
2021/04/21 06:29:35;;;;;;;40.70;32.30;;;8.60;96.60;;;;;;4988917;28;20030;-39
2021/04/21 06:32:06;;;;;;;38.83;30.88;;;8.60;96.40;;;;;;4991679;28;20052;-39
2021/04/21 06:34:32;;;;;;;37.80;30.70;;;8.70;96.40;;;;;;4990553;28;20046;-39
2021/04/21 06:36:59;;;;;;;36.60;30.35;;;8.80;96.30;;;;;;4990310;28;20092;-37
2021/04/21 06:39:28;;;;;;;37.55;29.92;;;8.80;96.10;;;;;;4991886;28;20624;-38
2021/04/21 06:41:55;;;;;;;35.95;28.42;;;8.90;96.00;;;;;;4988574;28;20145;-36
2021/04/21 06:44:42;;;;;;;35.30;28.83;;;9.00;95.80;;;;;;4994971;28;20405;-38
2021/04/21 06:47:18;;;;;;;33.53;27.38;;;9.00;95.60;;;;;;4995948;28;20161;-39
2021/04/21 06:49:43;;;;;;;33.15;27.38;;;9.10;95.50;;;;;;5001789;28;20176;-33
2021/04/21 06:52:16;;;;;;;34.80;27.88;;;9.20;95.40;;;;;;5000933;28;20096;-38
2021/04/21 06:54:41;;;;;;;31.80;24.50;;;9.20;95.40;;;;;;4994094;28;20112;-38
2021/04/21 06:57:07;;;;;;;29.40;25.35;;;9.30;95.40;;;;;;4986525;28;20546;-39
2021/04/21 06:59:33;;;;;;;34.97;25.48;;;9.40;95.20;;;;;;4989999;28;20458;-39
2021/04/21 07:01:58;;;;;;;31.88;24.50;;;9.50;95.00;;;;;;4986304;28;20089;-37
2021/04/21 07:04:23;;;;;;;31.25;24.55;;;9.60;94.60;;;;;;4995921;28;20062;-40
2021/04/21 07:06:50;;;;;;;34.22;24.80;;;9.60;94.10;;;;;;4984147;28;20039;-39
2021/04/21 07:09:18;;;;;;;33.60;25.38;;;9.70;94.00;;;;;;5000175;28;20030;-39
2021/04/21 07:11:44;;;;;;;32.28;25.17;;;9.80;93.90;;;;;;5006447;28;20045;-39
2021/04/21 07:14:20;;;;;;;33.85;24.58;;;9.80;93.70;;;;;;5001979;28;20358;-38
2021/04/21 07:16:49;;;;;;;30.35;24.30;;;9.90;93.60;;;;;;4989424;28;20030;-38
2021/04/21 07:19:16;;;;;;;31.95;24.75;;;10.00;93.30;;;;;;5001504;28;20533;-39
2021/04/21 07:21:43;;;;;;;33.85;26.52;;;10.00;93.10;;;;;;4988705;28;20133;-39
2021/04/21 07:24:11;;;;;;;32.33;25.10;;;10.10;93.20;;;;;;4999116;28;20476;-38
2021/04/21 07:26:42;;;;;;;34.00;25.92;;;10.20;93.10;;;;;;4990640;28;20608;-39
2021/04/21 07:29:15;;;;;;;32.42;25.45;;;10.20;92.80;;;;;;4996609;28;20069;-40
2021/04/21 07:31:41;;;;;;;31.67;25.17;;;10.30;93.10;;;;;;4991743;28;20041;-39
2021/04/21 07:34:11;;;;;;;33.45;24.80;;;10.40;92.80;;;;;;4995558;28;20021;-39
2021/04/21 07:36:48;;;;;;;29.45;23.90;;;10.40;92.60;;;;;;4993102;28;20031;-40
2021/04/21 07:39:14;;;;;;;32.17;22.70;;;10.50;92.30;;;;;;4995490;28;20026;-39
2021/04/21 07:41:50;;;;;;;28.27;22.98;;;10.60;92.10;;;;;;4993806;28;20033;-40
2021/04/21 07:44:50;;;;;;;31.58;23.30;;;10.70;92.00;;;;;;4993697;28;20508;-38
2021/04/21 07:47:17;;;;;;;30.95;22.23;;;10.80;91.80;;;;;;4991075;28;20085;-38
2021/04/21 07:49:45;;;;;;;27.75;21.75;;;10.90;91.40;;;;;;4995714;28;20103;-39
2021/04/21 07:52:33;;;;;;;29.13;22.88;;;10.90;91.00;;;;;;4992675;28;20053;-39
2021/04/21 07:55:20;;;;;;;27.80;22.13;;;11.00;91.10;;;;;;4996754;28;20079;-38
2021/04/21 07:58:04;;;;;;;31.65;22.98;;;11.10;90.80;;;;;;5007519;28;20030;-39
2021/04/21 08:00:31;;;;;;;26.23;21.67;;;11.10;90.70;;;;;;4999728;28;20022;-39
2021/04/21 08:03:00;;;;;;;25.48;19.90;;;11.20;90.70;;;;;;5004573;28;20742;-37
2021/04/21 08:05:25;;;;;;;27.27;20.30;;;11.30;90.60;;;;;;5003284;28;20030;-39
2021/04/21 08:08:00;;;;;;;28.40;19.92;;;11.30;90.70;;;;;;4991449;28;20030;-39
2021/04/21 08:10:28;;;;;;;28.92;20.27;;;11.40;90.40;;;;;;4995865;28;20022;-39
2021/04/21 08:13:00;;;;;;;24.38;18.40;;;11.50;89.60;;;;;;4990372;28;20072;-40
2021/04/21 08:15:38;;;;;;;22.95;16.50;;;11.60;89.00;;;;;;4995055;28;20026;-40
2021/04/21 08:18:12;;;;;;;24.95;18.80;;;11.70;88.10;;;;;;4991752;28;20102;-39
2021/04/21 08:20:52;;;;;;;23.02;17.08;;;11.80;87.10;;;;;;4994730;28;20018;-41
2021/04/21 08:23:19;;;;;;;21.80;16.83;;;11.90;86.00;;;;;;4991696;28;20034;-39
2021/04/21 08:25:45;;;;;;;22.23;16.83;;;12.00;85.60;;;;;;4993805;28;20105;-39
2021/04/21 08:28:10;;;;;;;29.33;17.25;;;12.10;85.00;;;;;;4994397;28;20193;-39
2021/04/21 08:30:36;;;;;;;24.45;16.60;;;12.10;85.30;;;;;;4991364;28;20378;-38
2021/04/21 08:33:03;;;;;;;25.15;16.60;;;12.20;85.60;;;;;;4996039;28;20513;-38
2021/04/21 08:35:28;;;;;;;20.33;15.45;;;12.30;85.00;;;;;;4988914;28;20423;-39
2021/04/21 08:37:54;;;;;;;22.85;16.95;;;12.40;84.30;;;;;;5005701;28;20135;-38
2021/04/21 08:40:24;;;;;;;22.63;15.98;;;12.40;83.70;;;;;;5005366;28;20471;-39
2021/04/21 08:42:59;;;;;;;20.13;15.48;;;12.50;82.70;;;;;;4996155;28;20396;-40
2021/04/21 08:45:25;;;;;;;21.58;16.70;;;12.60;82.80;;;;;;5005621;28;20034;-39
2021/04/21 08:47:51;;;;;;;19.42;16.33;;;12.70;81.90;;;;;;4996510;28;20564;-39
2021/04/21 08:50:17;;;;;;;20.05;15.70;;;12.70;82.10;;;;;;5007716;28;20037;-39
2021/04/21 08:52:57;;;;;;;21.52;15.40;;;12.80;82.50;;;;;;4994474;28;20042;-39
2021/04/21 08:55:25;;;;;;;17.15;13.18;;;12.80;82.30;;;;;;5007349;28;20026;-39
2021/04/21 08:57:51;;;;;;;20.35;15.32;;;12.80;83.50;;;;;;4994232;28;20113;-37
2021/04/21 09:00:19;;;;;;;19.25;14.77;;;12.80;82.00;;;;;;5005074;28;20109;-39
2021/04/21 09:02:45;;;;;;;21.48;15.15;;;12.80;82.20;;;;;;5003060;28;20038;-37
2021/04/21 09:05:12;;;;;;;15.63;13.13;;;12.90;81.60;;;;;;5006957;28;20121;-38
2021/04/21 09:07:38;;;;;;;18.17;13.77;;;12.90;81.30;;;;;;5001120;28;20033;-39
2021/04/21 09:10:09;;;;;;;17.05;13.40;;;13.00;81.20;;;;;;5003774;28;20018;-38
2021/04/21 09:12:35;;;;;;;16.42;13.40;;;13.10;79.20;;;;;;5001895;28;20176;-35
2021/04/21 09:15:01;;;;;;;17.27;13.05;;;13.20;79.20;;;;;;4990629;28;20423;-38
2021/04/21 09:17:26;;;;;;;16.88;12.00;;;13.20;78.00;;;;;;4992903;28;20025;-39
2021/04/21 09:19:52;;;;;;;14.10;11.85;;;13.30;78.30;;;;;;5006041;28;20029;-38
2021/04/21 09:22:17;;;;;;;14.98;12.48;;;13.40;76.70;;;;;;5002645;28;20467;-37
2021/04/21 09:24:43;;;;;;;13.73;11.55;;;13.50;76.80;;;;;;4997587;28;20026;-39
2021/04/21 09:27:23;;;;;;;14.48;11.02;;;13.50;75.90;;;;;;5004688;28;20446;-39
2021/04/21 09:29:49;;;;;;;17.58;11.00;;;13.60;74.90;;;;;;4996019;28;20601;-36
2021/04/21 09:32:14;;;;;;;13.63;10.43;;;13.70;73.40;;;;;;5005359;28;20026;-39
2021/04/21 09:34:56;;;;;;;15.40;10.00;;;13.80;74.40;;;;;;4993825;28;20034;-37
2021/04/21 09:37:25;;;;;;;12.95;9.23;;;13.80;74.20;;;;;;5005443;28;20437;-38
2021/04/21 09:39:51;;;;;;;16.83;10.85;;;13.90;74.00;;;;;;4995377;28;20353;-40
2021/04/21 09:42:25;;;;;;;13.23;9.88;;;14.00;72.60;;;;;;5003955;28;20454;-39
2021/04/21 09:44:52;;;;;;;14.00;10.75;;;14.00;71.90;;;;;;4999572;28;20426;-37
2021/04/21 09:47:19;;;;;;;16.40;11.75;;;13.90;72.40;;;;;;5005876;28;20492;-39
2021/04/21 09:49:44;;;;;;;17.23;11.90;;;13.80;71.60;;;;;;4998663;28;20050;-39
2021/04/21 09:52:13;;;;;;;17.30;11.93;;;13.90;72.00;;;;;;5005190;28;20875;-38
2021/04/21 09:54:42;;;;;;;17.48;12.80;;;13.90;72.00;;;;;;5000360;28;20026;-39
2021/04/21 09:57:13;;;;;;;16.90;12.98;;;14.00;72.30;;;;;;5003136;28;20085;-39
2021/04/21 09:59:39;;;;;;;15.75;12.77;;;14.00;73.00;;;;;;5000722;28;20032;-36
2021/04/21 10:02:30;;;;;;;17.00;12.50;;;14.00;72.30;;;;;;5003705;28;20034;-38
2021/04/21 10:04:55;;;;;;;16.00;12.18;;;14.10;72.60;;;;;;5000381;28;20342;-39
2021/04/21 10:07:21;;;;;;;16.98;11.40;;;14.10;71.90;;;;;;4986832;28;20424;-41
2021/04/21 10:09:49;;;;;;;16.25;12.07;;;14.20;70.90;;;;;;4997410;28;20576;-38
2021/04/21 10:12:22;;;;;;;18.85;13.63;;;14.20;70.70;;;;;;4987952;28;20562;-39
2021/04/21 10:15:08;;;;;;;19.65;13.82;;;14.20;70.80;;;;;;4995510;28;20049;-39
2021/04/21 10:17:41;;;;;;;15.95;12.07;;;14.20;71.00;;;;;;4985964;28;20133;-40
2021/04/21 10:20:13;;;;;;;18.15;13.15;;;14.20;70.90;;;;;;4996775;28;20030;-38
2021/04/21 10:22:40;;;;;;;20.25;14.48;;;14.30;71.10;;;;;;4986122;28;20387;-38
2021/04/21 10:25:08;;;;;;;16.38;13.00;;;14.30;71.40;;;;;;4994215;28;20447;-35
2021/04/21 10:27:34;;;;;;;20.52;14.52;;;14.30;71.90;;;;;;4988176;28;20498;-38
2021/04/21 10:30:01;;;;;;;21.30;14.80;;;14.40;70.90;;;;;;4989587;28;20030;-37
2021/04/21 10:32:26;;;;;;;19.30;14.23;;;14.40;71.20;;;;;;4999010;28;20539;-38
2021/04/21 10:35:02;;;;;;;22.25;15.20;;;14.40;72.00;;;;;;4998611;28;20029;-35
2021/04/21 10:37:28;;;;;;;18.75;14.13;;;14.50;72.00;;;;;;5000997;28;20168;-37
2021/04/21 10:39:54;;;;;;;17.90;13.88;;;14.50;71.70;;;;;;5000786;28;20150;-38
2021/04/21 10:42:22;;;;;;;19.25;15.60;;;14.60;71.80;;;;;;4994485;28;20044;-39
2021/04/21 10:44:50;;;;;;;20.63;14.25;;;14.70;71.60;;;;;;4986379;28;20054;-40
2021/04/21 10:47:44;;;;;;;25.42;18.83;;;14.70;72.10;;;;;;4994104;28;20061;-39
2021/04/21 10:50:12;;;;;;;28.85;19.50;;;14.80;72.50;;;;;;5002237;28;20029;-38
2021/04/21 10:52:40;;;;;;;23.83;17.85;;;14.80;73.40;;;;;;4995511;28;20033;-39
2021/04/21 10:55:09;;;;;;;23.67;17.75;;;14.80;74.30;;;;;;5003775;28;20022;-37
2021/04/21 10:57:40;;;;;;;23.75;18.23;;;14.90;74.60;;;;;;4999826;28;20036;-39
2021/04/21 11:00:21;;;;;;;27.55;19.42;;;14.90;75.40;;;;;;4999640;28;20073;-39
2021/04/21 11:02:48;;;;;;;27.92;19.77;;;15.00;75.20;;;;;;4993313;28;20037;-40
2021/04/21 11:05:20;;;;;;;26.23;19.02;;;15.00;74.50;;;;;;4999094;28;20532;-38
2021/04/21 11:08:00;;;;;;;26.98;19.55;;;15.10;75.40;;;;;;4997747;28;20330;-38
2021/04/21 11:10:36;;;;;;;29.95;19.85;;;15.20;74.50;;;;;;5004192;28;20036;-38
2021/04/21 11:13:05;;;;;;;23.80;18.90;;;15.40;73.00;;;;;;4993970;28;20026;-39
2021/04/21 11:15:43;;;;;;;24.38;17.98;;;15.40;72.70;;;;;;5003372;28;20022;-38
2021/04/21 11:18:08;;;;;;;24.05;17.23;;;15.50;72.80;;;;;;4993904;28;20129;-37
2021/04/21 11:20:46;;;;;;;27.10;19.10;;;15.50;73.00;;;;;;5002966;28;20105;-35
2021/04/21 11:26:33;;;;;;;21.73;15.73;;;15.40;72.80;;;;;;4987466;28;20034;-36
2021/04/21 11:29:21;;;;;;;21.88;16.85;;;15.40;72.50;;;;;;4992938;28;20066;-42
2021/04/21 11:31:50;;;;;;;23.42;17.65;;;15.40;73.10;;;;;;4989454;28;20117;-38
2021/04/21 11:34:27;;;;;;;21.48;15.15;;;15.50;72.30;;;;;;4991866;28;20026;-37
2021/04/21 11:36:53;;;;;;;19.77;14.65;;;15.50;70.80;;;;;;4989117;28;20820;-38
2021/04/21 11:39:44;;;;;;;19.48;14.68;;;15.60;70.70;;;;;;4993070;28;20052;-40
2021/04/21 11:42:30;;;;;;;19.27;14.50;;;15.70;70.30;;;;;;4988968;28;20562;-37
2021/04/21 11:45:08;;;;;;;21.40;15.35;;;15.70;68.60;;;;;;4989486;28;20080;-40
2021/04/21 11:47:48;;;;;;;22.90;15.43;;;15.70;69.20;;;;;;4991580;28;20037;-38
2021/04/21 11:50:18;;;;;;;19.65;14.30;;;15.70;69.00;;;;;;4988299;28;20109;-39
2021/04/21 11:53:02;;;;;;;21.42;15.40;;;15.80;69.00;;;;;;4991427;28;20266;-38
2021/04/21 11:55:45;;;;;;;20.77;14.15;;;15.80;68.40;;;;;;4987739;28;20038;-39
2021/04/21 11:58:23;;;;;;;16.85;12.57;;;15.90;69.30;;;;;;4996045;28;20034;-38
2021/04/21 12:00:56;;;;;;;28.98;19.00;;;16.10;69.50;;;;;;4988452;28;20113;-38
2021/04/21 12:03:32;;;;;;;;;;;16.20;70.70;;;;;;4996798;28;20053;-39
2021/04/21 12:06:00;;;;;;;27.98;19.27;;;16.20;73.30;;;;;;5007242;28;19924;-37
2021/04/21 12:08:31;;;;;;;25.88;18.90;;;16.10;74.70;;;;;;5002334;28;20029;-39
2021/04/21 12:10:59;;;;;;;23.55;18.40;;;15.90;75.90;;;;;;5003351;28;20030;-39
2021/04/21 12:13:30;;;;;;;28.67;19.80;;;15.80;77.70;;;;;;5002759;28;20019;-38
2021/04/21 12:16:28;;;;;;;27.17;20.75;;;15.70;77.30;;;;;;5005189;28;20024;-39
2021/04/21 12:18:56;;;;;;;29.00;18.95;;;15.60;78.00;;;;;;4949565;28;20137;-36
2021/04/21 12:21:31;;;;;;;24.13;18.23;;;15.40;78.50;;;;;;5004698;28;20109;-38
2021/04/21 12:24:00;;;;;;;27.42;18.38;;;15.20;79.40;;;;;;4998906;28;20030;-38
2021/04/21 12:26:26;;;;;;;27.67;19.80;;;15.10;79.80;;;;;;5003643;28;20114;-37
2021/04/21 12:29:02;;;;;;;26.02;19.20;;;15.00;79.60;;;;;;5003103;28;20030;-40
2021/04/21 12:31:30;;;;;;;25.45;18.02;;;15.00;79.90;;;;;;5004147;28;20472;-41
2021/04/21 12:33:58;;;;;;;23.75;17.23;;;15.00;80.20;;;;;;4999054;28;20026;-40
2021/04/21 12:36:30;;;;;;;18.98;15.32;;;15.00;79.50;;;;;;5000642;28;20069;-39
2021/04/21 12:39:28;;;;;;;25.27;15.52;;;15.00;79.30;;;;;;5002490;28;20018;-37
2021/04/21 12:41:54;;;;;;;21.23;15.18;;;14.90;79.70;;;;;;4948969;28;20044;-38
2021/04/21 12:44:26;;;;;;;23.33;14.82;;;14.80;79.30;;;;;;5001746;28;20022;-38
2021/04/21 12:46:53;;;;;;;18.92;12.95;;;14.90;79.10;;;;;;5001053;28;20044;-37
2021/04/21 12:49:33;;;;;;;15.13;11.38;;;14.80;78.80;;;;;;5002308;28;20053;-38
2021/04/21 12:52:00;;;;;;;17.52;12.02;;;14.80;78.50;;;;;;5006900;28;20781;-39
2021/04/21 12:54:43;;;;;;;14.27;10.63;;;14.80;78.60;;;;;;4991755;28;20109;-40
2021/04/21 12:57:11;;;;;;;15.55;8.80;;;14.70;78.50;;;;;;4997745;28;20038;-38
2021/04/21 12:59:43;;;;;;;11.73;8.35;;;14.70;78.10;;;;;;4998815;28;20022;-37
2021/04/21 13:02:12;;;;;;;12.95;7.78;;;14.70;78.30;;;;;;4996577;28;20616;-39
2021/04/21 13:04:40;;;;;;;12.55;7.60;;;14.80;78.30;;;;;;5000718;28;20058;-38
2021/04/21 13:07:21;;;;;;;10.70;6.90;;;14.90;78.30;;;;;;4995657;28;20079;-36
2021/04/21 13:09:49;;;;;;;9.05;6.57;;;15.00;77.00;;;;;;5001094;28;20037;-37